• Join FlightAware (Why Join?)
  • Login
  • US Flag 
08:14AM EDT


 

Airport Tracker/Info


-or-


 

Live Flight TrackerFlight Track Log ✈ THY1073 ✈ 10-Jul-2013 ✈ LTBA / IST - LATI / TIA

Flight Track Log - Related Links

Times and Time Zones

All times are in EDT time to prevent confusion due to time zone crossing. See the THY1073 flight status page for this flight to view local times or setup timezone preferences in your user account.

Time Position Orientation Groundspeed Altitude Reporting Facility
EDT Latitude Longitude Course Direction KTS MPH feet Rate Location/Type
01:31AM 41.2679 24.6398 277° West  Level Estimated
01:32AM 41.2750 24.4999 274° West  Level Estimated
01:33AM 41.2819 24.3599 274° West  Level Estimated
01:34AM 41.2887 24.2199 274° West  Level Estimated
01:35AM 41.2952 24.0798 274° West  Level Estimated
01:36AM 41.3016 23.9397 274° West  Level Estimated
01:37AM 41.3079 23.7996 273° West  Level Estimated
01:38AM 41.3139 23.6595 273° West  Level Estimated
01:39AM 41.3199 23.5194 273° West  Level Estimated
01:40AM 41.3256 23.3792 273° West  Level Estimated
01:41AM 41.3311 23.2390 273° West  Level Estimated
01:42AM 41.3365 23.0987 273° West  Level Estimated
01:43AM 41.3418 22.9585 273° West  Level Estimated
01:44AM 41.3468 22.8182 273° West  Level Estimated
01:45AM 41.3517 22.6779 273° West  Level Estimated
01:46AM 41.3564 22.5376 273° West  Level Estimated
01:47AM 41.3609 22.3973 273° West  Level Estimated
01:48AM 41.3653 22.2569 272° West  Level Estimated
01:49AM 41.3695 22.1166 272° West  Level Estimated
01:50AM 41.3735 21.9762 272° West  Level Estimated
01:51AM 41.3774 21.8358 272° West  Level Estimated
01:52AM 41.3810 21.6954 272° West  Level Estimated
01:53AM 41.3845 21.5549 272° West  Level Estimated
01:54AM 41.3879 21.4145 272° West  Level Estimated
01:55AM 41.3911 21.2740 272° West  Level Estimated
01:56AM 41.3941 21.1335 272° West  Level Estimated
01:57AM 41.3969 20.9930 272° West  Level Estimated
01:58AM 41.3996 20.8525 271° West  Level Estimated
01:59AM 41.4020 20.7120 271° West  Level Estimated
02:00AM 41.4044 20.5715 271° West  Level Estimated
02:01AM 41.4065 20.4310 271° West  Level Estimated
02:02AM 41.4085 20.2904 271° West  Level Estimated
02:03AM 41.4103 20.1499 271° West  Level Estimated
02:04AM 41.4119 20.0093 271° West  Level Estimated
02:05AM 41.4134 19.8687 271° West  Level Estimated
02:06AM 41.4147 19.7282 271° West  Level Estimated
02:07AM 41.4147 19.7206 271° West  Level Estimated
02:08AM 41.4147 19.7206 21° North  Level Estimated
02:09AM 41.4147 19.7206 21° North  Level Estimated
02:10AM 41.4147 19.7206 21° North  Level Estimated
02:11AM 41.4147 19.7206 21° North  Level Estimated
02:12AM 41.4147 19.7206 21° North  Level Estimated
02:13AM 41.4147 19.7206 21° North  Level Estimated
02:14AM 41.4147 19.7206 21° North  Level Estimated
02:15AM 41.4147 19.7206 21° North  Level Estimated
02:16AM 41.4147 19.7206 21° North  Level Estimated
02:17AM 41.4147 19.7206 21° North  Level Estimated
02:18AM 41.4147 19.7206 21° North  Level Estimated
02:19AM 41.4147 19.7206 21° North  Level Estimated
02:20AM 41.4147 19.7206 21° North  Level Estimated
02:21AM 41.4147 19.7206 21° North  Level Estimated
02:22AM 41.4147 19.7206 21° North  Level Estimated